Aviation Digital Data Service (ADDS)

Output produced by METARs form (2009 UTC 01 October 2022)
found at http://www.aviationweather.gov/metar/data/
 
TAF LZSL 011930Z 0121/0206 26008KT 9999 -RA SCT038 BKN050 OVC070 
     TEMPO 0201/0206 33007KT SCT035